EGPK/PIK METAR and TAF weather

Enter ICAO airport designator
Station Type Date Time Source
EGPK METAR 2019/08/22 09:20 UTC NOAA

EGPK 220920Z 21014KT 180V240 9999 FEW015 SCT020 17/12 Q1015


Station Type Date Time Source
EGPK Decoded METAR 2019/08/22 09:20 UTC NOAA

Station name not available
Aug 22, 2019 - 05:20 AM EDT / 2019.08.22 0920 UTC
Wind: from the SSW (210 degrees) at 16 MPH (14 KT) (direction variable):0
Visibility: greater than 7 mile(s):0
Sky conditions: partly cloudy
Temperature: 62 F (17 C)
Dew Point: 53 F (12 C)
Relative Humidity: 72%
Pressure (altimeter): 29.97 in. Hg (1015 hPa)
ob: EGPK 220920Z 21014KT 180V240 9999 FEW015 SCT020 17/12 Q1015
cycle: 9

Station Type Date Time Source
EGPK TAF 2019/08/22 06:09 UTC NOAA

TAF EGPK 220455Z 2206/2306 20004KT 8000 FEW015 SCT035
BECMG 2206/2208 21014KT 9999
TEMPO 2209/2222 6000 -RADZ BKN012 PROB40
TEMPO 2210/2220 22020G30KT 4000 RADZ BKN008 PROB30
TEMPO 2220/2306 22015G25KT

Example: see airport list